Time;durP1;ratioP1;P1;durP2;ratioP2;P2;SDS_P1;SDS_P2;PMS_P1;PMS_P2;Temp;Humidity;BMP_temperature;BMP_pressure;BME280_temperature;BME280_humidity;BME280_pressure;Samples;Min_cycle;Max_cycle;Signal;HPM_P1;HPM_P2
2023/12/13 00:01:50;;;;;;;5.60;1.80;;;;;;;23.44;36.45;99548.72;4231994;27;20067;-52
2023/12/13 00:03:55;;;;;;;6.15;1.92;;;;;;;23.44;36.32;99535.31;4231846;28;20555;-54
2023/12/13 00:05:57;;;;;;;;;;;;;;;23.43;36.10;99541.69;4232552;28;20506;-52
2023/12/13 00:07:58;;;;;;;6.55;1.85;;;;;;;23.40;36.13;99536.66;4232149;28;19920;-53
2023/12/13 00:10:00;;;;;;;6.25;1.60;;;;;;;23.41;36.13;99535.63;4231889;28;20122;-53
2023/12/13 00:12:02;;;;;;;5.63;1.75;;;;;;;23.43;36.51;99530.94;4231691;28;20048;-53
2023/12/13 00:14:05;;;;;;;5.88;1.90;;;;;;;23.47;36.26;99538.66;4231406;28;20048;-53
2023/12/13 00:16:08;;;;;;;6.70;1.90;;;;;;;23.48;36.38;99535.81;4231636;28;20138;-52
2023/12/13 00:18:10;;;;;;;6.40;2.08;;;;;;;23.51;36.19;99526.59;4231613;28;20096;-51
2023/12/13 00:20:12;;;;;;;7.18;2.00;;;;;;;23.52;36.34;99539.00;4231892;28;20481;-49
2023/12/13 00:22:13;;;;;;;5.93;1.77;;;;;;;23.53;36.10;99521.91;4231506;28;20131;-54
2023/12/13 00:24:15;;;;;;;6.72;1.70;;;;;;;23.53;36.39;99520.03;4231616;28;20047;-55
2023/12/13 00:26:18;;;;;;;7.25;1.65;;;;;;;23.52;35.98;99518.34;4231738;28;20055;-53
2023/12/13 00:28:20;;;;;;;5.82;1.60;;;;;;;23.53;36.29;99520.03;4231242;28;20090;-52
2023/12/13 00:30:21;;;;;;;6.45;1.83;;;;;;;23.51;36.44;99524.72;4231633;28;20063;-51
2023/12/13 00:32:23;;;;;;;6.00;1.70;;;;;;;23.51;36.50;99521.22;4231644;28;20044;-52
2023/12/13 00:34:25;;;;;;;;;;;;;;;23.50;36.32;99523.06;4230673;28;20052;-53
2023/12/13 00:36:27;;;;;;;;;;;;;;;23.49;36.30;99515.16;4231743;28;19924;-53
2023/12/13 00:38:28;;;;;;;5.72;1.73;;;;;;;23.47;36.43;99518.03;4231478;28;19920;-52
2023/12/13 00:40:30;;;;;;;5.38;1.52;;;;;;;23.52;36.25;99526.41;4231642;28;20078;-52
2023/12/13 00:42:32;;;;;;;;;;;;;;;23.54;36.06;99524.41;4231661;28;20043;-50
2023/12/13 00:44:33;;;;;;;6.20;2.03;;;;;;;23.54;36.14;99512.84;4231532;28;20246;-52
2023/12/13 00:46:35;;;;;;;5.13;1.40;;;;;;;23.56;36.30;99511.66;4231550;28;20082;-51
2023/12/13 00:48:37;;;;;;;5.85;1.80;;;;;;;23.57;36.37;99501.75;4230309;28;20490;-53
2023/12/13 00:50:39;;;;;;;;;;;;;;;23.56;36.04;99498.25;4231904;28;20044;-50
2023/12/13 00:52:41;;;;;;;5.35;1.70;;;;;;;23.55;36.38;99499.25;4231463;28;20336;-53
2023/12/13 00:54:43;;;;;;;6.00;1.40;;;;;;;23.54;36.30;99497.56;4231122;28;20082;-50
2023/12/13 00:56:45;;;;;;;;;;;;;;;23.52;35.92;99488.00;4229161;28;20043;-51
2023/12/13 00:58:47;;;;;;;6.95;1.90;;;;;;;23.51;36.31;99495.22;4231027;28;19920;-48
2023/12/13 01:00:49;;;;;;;4.55;1.35;;;;;;;23.54;36.43;99494.88;4231300;27;20126;-51
2023/12/13 01:02:51;;;;;;;4.75;1.45;;;;;;;23.58;36.02;99501.56;4231063;27;20043;-50
2023/12/13 01:04:53;;;;;;;;;;;;;;;23.60;35.96;99498.75;4231485;28;20507;-50
2023/12/13 01:06:54;;;;;;;4.38;1.45;;;;;;;23.59;36.26;99495.19;4230822;28;19923;-51
2023/12/13 01:08:56;;;;;;;5.30;1.50;;;;;;;23.62;35.81;99496.72;4230925;28;20494;-53
2023/12/13 01:10:58;;;;;;;6.50;1.80;;;;;;;23.63;36.06;99493.03;4230682;28;20075;-48
2023/12/13 01:13:00;;;;;;;6.60;1.60;;;;;;;23.64;35.93;99486.66;4230922;28;20098;-52
2023/12/13 01:15:03;;;;;;;4.05;1.45;;;;;;;23.63;36.17;99489.50;4230773;28;20051;-55
2023/12/13 01:17:05;;;;;;;5.55;1.40;;;;;;;23.63;36.01;99489.50;4231018;28;20047;-50
2023/12/13 01:19:07;;;;;;;4.85;1.38;;;;;;;23.59;35.93;99492.53;4230953;28;20047;-49
2023/12/13 01:21:09;;;;;;;6.43;1.80;;;;;;;23.60;36.04;99493.38;4230772;28;20089;-52
2023/12/13 01:23:11;;;;;;;5.20;1.50;;;;;;;23.60;36.13;99490.69;4230581;28;20090;-51
2023/12/13 01:25:12;;;;;;;4.85;1.30;;;;;;;23.62;36.06;99494.03;4230457;28;20047;-49
2023/12/13 01:27:14;;;;;;;;;;;;;;;23.63;35.74;99493.03;4231125;28;20405;-51
2023/12/13 01:29:16;;;;;;;4.75;1.42;;;;;;;23.65;36.01;99490.19;4230757;28;19945;-52
2023/12/13 01:31:17;;;;;;;;;;;;;;;23.67;35.69;99493.53;4231150;28;20051;-53
2023/12/13 01:33:19;;;;;;;;;;;;;;;23.65;36.22;99490.19;4231069;28;20352;-52
2023/12/13 01:35:21;;;;;;;4.88;1.40;;;;;;;23.65;35.86;99492.88;4230537;28;20415;-51
2023/12/13 01:37:23;;;;;;;4.90;1.60;;;;;;;23.65;35.71;99495.56;4230452;28;20517;-54
2023/12/13 01:39:24;;;;;;;5.28;1.30;;;;;;;23.64;36.12;99491.19;4230078;28;20073;-52
2023/12/13 01:41:26;;;;;;;3.95;1.23;;;;;;;23.64;35.95;99493.88;4230606;28;20475;-50
2023/12/13 01:43:28;;;;;;;5.65;1.50;;;;;;;23.63;35.86;99494.88;4230595;28;20068;-55
2023/12/13 01:45:30;;;;;;;6.63;1.58;;;;;;;23.63;35.94;99495.69;4230568;28;20047;-50
2023/12/13 01:47:32;;;;;;;5.05;1.25;;;;;;;23.63;35.67;99493.03;4230471;28;20474;-50
2023/12/13 01:49:35;;;;;;;5.28;1.48;;;;;;;23.66;35.92;99499.88;4230237;28;20048;-53
2023/12/13 01:51:38;;;;;;;5.13;1.40;;;;;;;23.66;35.76;99494.53;4230237;28;20039;-50
2023/12/13 01:53:40;;;;;;;5.05;1.48;;;;;;;23.69;35.86;99496.88;4230480;28;20043;-50
2023/12/13 01:55:42;;;;;;;5.40;1.40;;;;;;;23.71;35.64;99497.56;4230055;28;20053;-52
2023/12/13 01:57:43;;;;;;;5.50;1.35;;;;;;;23.72;35.99;99504.56;4230457;28;20448;-50
2023/12/13 01:59:45;;;;;;;4.90;1.50;;;;;;;23.72;35.98;99502.75;4230296;28;20050;-50
2023/12/13 02:01:47;;;;;;;5.50;1.40;;;;;;;23.73;35.71;99503.56;4230367;28;20048;-52
2023/12/13 02:03:48;;;;;;;;;;;;;;;23.70;35.67;99498.56;4230703;28;20523;-50
2023/12/13 02:05:53;;;;;;;5.32;1.63;;;;;;;23.67;36.12;99506.94;4230383;28;19919;-51
2023/12/13 02:07:55;;;;;;;5.13;1.38;;;;;;;23.68;35.79;99512.16;4230207;28;20078;-50
2023/12/13 02:09:56;;;;;;;5.15;1.60;;;;;;;23.71;35.53;99510.97;4229849;28;20481;-48
2023/12/13 02:11:58;;;;;;;;;;;;;;;23.73;35.96;99511.63;4230489;28;20052;-49
2023/12/13 02:14:00;;;;;;;6.72;1.48;;;;;;;23.72;35.71;99513.50;4230105;28;20010;-50
2023/12/13 02:16:01;;;;;;;;;;;;;;;23.73;35.96;99509.81;4230313;28;20040;-48
2023/12/13 02:18:03;;;;;;;4.85;1.42;;;;;;;23.73;36.04;99508.94;4230336;28;19923;-52
2023/12/13 02:20:06;;;;;;;5.85;1.48;;;;;;;23.75;35.66;99501.56;4230325;28;20587;-51
2023/12/13 02:22:08;;;;;;;5.63;1.33;;;;;;;23.78;35.74;99495.88;4229713;28;20043;-51
2023/12/13 02:24:10;;;;;;;5.53;1.40;;;;;;;23.77;35.71;99496.88;4229825;28;20157;-53
2023/12/13 02:26:12;;;;;;;4.15;1.33;;;;;;;23.76;35.51;99498.69;4230224;28;20118;-50
2023/12/13 02:28:15;;;;;;;4.45;1.40;;;;;;;23.75;35.55;99496.19;4230040;28;20044;-53
2023/12/13 02:30:16;;;;;;;4.82;1.55;;;;;;;23.73;35.84;99493.69;4230047;28;20127;-49
2023/12/13 02:32:19;;;;;;;;;;;;;;;23.73;35.70;99498.22;4230333;28;20051;-49
2023/12/13 02:34:20;;;;;;;;;;;;;;;23.72;35.78;99491.16;4230243;28;19919;-52
2023/12/13 02:36:22;;;;;;;4.93;1.35;;;;;;;23.71;35.55;99489.50;4229740;28;19926;-52
2023/12/13 02:38:24;;;;;;;6.05;1.63;;;;;;;23.75;36.01;99485.47;4229580;28;20403;-51
2023/12/13 02:40:26;;;;;;;4.53;1.20;;;;;;;23.79;35.53;99477.91;4229926;28;20101;-52
2023/12/13 02:42:29;;;;;;;5.57;1.55;;;;;;;23.77;35.45;99481.59;4230288;28;20134;-51
2023/12/13 02:44:30;;;;;;;4.22;1.25;;;;;;;23.79;35.55;99480.59;4230007;28;20039;-51
2023/12/13 02:46:32;;;;;;;6.05;1.70;;;;;;;23.79;35.65;99481.41;4229684;28;20113;-50
2023/12/13 02:48:34;;;;;;;5.43;1.23;;;;;;;23.79;35.38;99473.34;4230008;28;20050;-51
2023/12/13 02:50:36;;;;;;;5.35;1.38;;;;;;;23.80;35.70;99479.59;4228771;28;20073;-53
2023/12/13 02:52:41;;;;;;;5.15;1.27;;;;;;;23.76;35.46;99477.22;4229432;28;20052;-51
2023/12/13 02:54:43;;;;;;;4.75;1.38;;;;;;;23.78;35.80;99477.06;4229761;28;20153;-50
2023/12/13 02:56:45;;;;;;;5.20;1.50;;;;;;;23.77;35.32;99468.16;4229737;28;20043;-51
2023/12/13 02:58:46;;;;;;;;;;;;;;;23.78;35.40;99466.34;4230072;28;20048;-49
2023/12/13 03:00:50;;;;;;;4.95;1.50;;;;;;;23.77;35.76;99467.34;4230052;28;19924;-49
2023/12/13 03:02:52;;;;;;;4.30;1.30;;;;;;;23.80;35.48;99464.31;4229860;28;20118;-53
2023/12/13 03:04:53;;;;;;;;;;;;;;;23.80;35.44;99458.94;4230152;28;20105;-54
2023/12/13 03:06:55;;;;;;;4.50;1.27;;;;;;;23.80;35.75;99450.88;4229435;28;20314;-52
2023/12/13 03:08:57;;;;;;;4.85;1.33;;;;;;;23.82;35.37;99458.78;4229840;28;20047;-51
2023/12/13 03:10:58;;;;;;;6.45;1.83;;;;;;;23.83;35.23;99449.69;4229704;28;20593;-54
2023/12/13 03:13:00;;;;;;;4.47;1.15;;;;;;;23.83;35.66;99455.06;4229788;28;20122;-52
2023/12/13 03:15:02;;;;;;;6.22;1.40;;;;;;;23.82;35.25;99458.78;4229732;28;20109;-54
2023/12/13 03:17:03;;;;;;;4.43;1.50;;;;;;;23.80;35.08;99450.06;4228340;28;20048;-53
2023/12/13 03:19:05;;;;;;;6.13;1.60;;;;;;;23.80;35.36;99450.88;4229712;28;20043;-54
2023/12/13 03:21:07;;;;;;;;;;;;;;;23.79;35.44;99459.94;4231145;28;20039;-54
2023/12/13 03:23:10;;;;;;;5.65;1.60;;;;;;;23.79;35.37;99445.69;4232495;28;20306;-51
2023/12/13 03:25:11;;;;;;;5.32;1.48;;;;;;;23.82;35.32;99443.50;4232637;28;20046;-53
2023/12/13 03:27:13;;;;;;;;;;;;;;;23.83;35.63;99447.00;4231985;28;20056;-50
2023/12/13 03:29:15;;;;;;;4.70;1.52;;;;;;;23.83;35.30;99447.00;4232719;28;19920;-53
2023/12/13 03:31:16;;;;;;;5.53;1.40;;;;;;;23.84;35.30;99441.50;4232490;28;20574;-52
2023/12/13 03:33:18;;;;;;;4.97;1.27;;;;;;;23.84;35.54;99444.16;4232507;28;20122;-49
2023/12/13 03:35:22;;;;;;;4.47;1.33;;;;;;;23.84;35.26;99446.84;4232023;28;20122;-51
2023/12/13 03:37:24;;;;;;;4.95;1.52;;;;;;;23.83;35.30;99442.50;4232303;28;20071;-51
2023/12/13 03:39:26;;;;;;;6.38;1.73;;;;;;;23.82;35.57;99438.13;4232452;28;20077;-53
2023/12/13 03:41:27;;;;;;;5.07;1.60;;;;;;;23.82;35.14;99435.44;4232466;28;20413;-54
2023/12/13 03:43:29;;;;;;;5.78;1.45;;;;;;;23.81;35.15;99433.75;4232262;28;20071;-55
2023/12/13 03:45:31;;;;;;;;;;;;;;;23.82;35.27;99437.31;4232937;28;20044;-51
2023/12/13 03:47:32;;;;;;;5.65;1.60;;;;;;;23.79;35.18;99438.47;4232438;28;19920;-53
2023/12/13 03:49:35;;;;;;;4.57;1.13;;;;;;;23.83;35.48;99439.81;4232310;28;20585;-53
2023/12/13 03:51:36;;;;;;;;;;;;;;;23.84;35.38;99438.81;4232252;28;20047;-52
2023/12/13 03:53:39;;;;;;;7.47;1.50;;;;;;;23.84;35.19;99435.25;4232199;28;19972;-53
2023/12/13 03:55:41;;;;;;;4.70;1.27;;;;;;;23.86;35.55;99431.38;4232230;28;20127;-52
2023/12/13 03:57:42;;;;;;;5.63;1.40;;;;;;;23.86;35.47;99425.19;4232109;28;20100;-52
2023/12/13 03:59:44;;;;;;;4.68;1.35;;;;;;;23.86;35.35;99426.03;4231948;28;20054;-51
2023/12/13 04:01:46;;;;;;;4.65;1.30;;;;;;;23.86;35.38;99425.19;4232135;28;20044;-51
2023/12/13 04:03:47;;;;;;;5.20;1.63;;;;;;;23.86;35.11;99423.34;4232167;28;20051;-53
2023/12/13 04:05:49;;;;;;;;;;;;;;;23.85;35.10;99420.84;4231945;28;20059;-50
2023/12/13 04:07:51;;;;;;;4.53;1.33;;;;;;;23.84;35.38;99428.06;4230988;28;19920;-52
2023/12/13 04:09:53;;;;;;;5.97;1.20;;;;;;;23.85;34.95;99432.44;4232061;28;20213;-53
2023/12/13 04:11:54;;;;;;;;;;;;;;;23.85;35.25;99429.75;4232296;28;20047;-48
2023/12/13 04:13:56;;;;;;;5.97;1.67;;;;;;;23.84;35.56;99432.56;4231884;28;19959;-51
2023/12/13 04:15:57;;;;;;;3.78;1.30;;;;;;;23.86;35.07;99431.38;4231729;28;20417;-50
2023/12/13 04:17:59;;;;;;;6.18;1.55;;;;;;;23.88;35.33;99424.00;4230378;28;20055;-52
2023/12/13 04:20:00;;;;;;;4.03;1.33;;;;;;;23.89;35.40;99436.44;4231373;28;20043;-49
2023/12/13 04:22:02;;;;;;;;;;;;;;;23.89;35.06;99432.88;4232200;28;20125;-48
2023/12/13 04:24:04;;;;;;;4.57;1.30;;;;;;;23.88;35.12;99437.44;4231866;28;19951;-49
2023/12/13 04:26:06;;;;;;;4.07;1.20;;;;;;;23.89;35.24;99433.75;4231604;28;20540;-51
2023/12/13 04:28:08;;;;;;;6.25;1.50;;;;;;;23.89;35.10;99433.75;4231553;28;20487;-49
2023/12/13 04:30:11;;;;;;;;;;;;;;;23.88;35.18;99433.94;4232306;28;20467;-50
2023/12/13 04:32:13;;;;;;;4.30;1.33;;;;;;;23.87;35.36;99429.56;4231384;28;20301;-49
2023/12/13 04:34:14;;;;;;;5.80;1.50;;;;;;;23.89;34.98;99433.75;4231395;28;20051;-51
2023/12/13 04:36:16;;;;;;;5.72;1.23;;;;;;;23.91;35.28;99437.09;4231327;28;20052;-51
2023/12/13 04:38:17;;;;;;;;;;;;;;;23.92;34.92;99436.09;4231928;28;20040;-52
2023/12/13 04:40:19;;;;;;;4.72;1.30;;;;;;;23.91;35.23;99442.47;4231460;27;19923;-53
2023/12/13 04:42:21;;;;;;;;;;;;;;;23.93;34.92;99428.91;4232022;28;20486;-52
2023/12/13 04:44:27;;;;;;;4.97;1.50;;;;;;;23.91;35.15;99426.34;4231242;28;19926;-53
2023/12/13 04:46:29;;;;;;;6.15;1.50;;;;;;;23.92;35.19;99417.31;4231186;28;20055;-55
2023/12/13 04:48:31;;;;;;;10.05;1.55;;;;;;;23.92;35.01;99416.44;4229826;28;20044;-53
2023/12/13 04:50:33;;;;;;;7.30;1.75;;;;;;;23.91;35.07;99415.63;4231472;28;20047;-51
2023/12/13 04:52:34;;;;;;;4.72;1.20;;;;;;;23.92;35.09;99419.13;4230169;28;20054;-51
2023/12/13 04:54:37;;;;;;;;;;;;;;;23.91;34.86;99414.75;4230267;28;20043;-52
2023/12/13 04:56:39;;;;;;;4.60;1.30;;;;;;;23.89;34.94;99411.41;4231149;28;20397;-50
2023/12/13 04:58:40;;;;;;;4.43;1.40;;;;;;;23.91;34.91;99412.09;4231206;28;20040;-52
2023/12/13 05:00:42;;;;;;;6.15;1.55;;;;;;;23.92;35.23;99411.06;4231205;28;20046;-54
2023/12/13 05:02:45;;;;;;;4.85;1.13;;;;;;;23.94;35.19;99417.16;4230718;28;20119;-52
2023/12/13 05:04:47;;;;;;;5.57;1.63;;;;;;;23.93;35.20;99416.28;4230938;28;20044;-52
2023/12/13 05:06:48;;;;;;;4.97;1.40;;;;;;;23.95;35.15;99417.97;4231100;28;20044;-53
2023/12/13 05:08:50;;;;;;;4.38;1.10;;;;;;;23.95;35.14;99412.59;4230882;28;20043;-53
2023/12/13 05:10:52;;;;;;;3.95;1.20;;;;;;;23.95;34.91;99408.09;4230998;28;20039;-49
2023/12/13 05:12:54;;;;;;;;;;;;;;;23.93;35.02;99410.91;4231297;28;20100;-53
2023/12/13 05:14:55;;;;;;;4.55;1.50;;;;;;;23.91;35.09;99415.63;4231039;28;19923;-51
2023/12/13 05:16:57;;;;;;;3.78;1.17;;;;;;;23.92;34.94;99422.66;4229459;28;20201;-52
2023/12/13 05:18:59;;;;;;;4.43;1.40;;;;;;;23.91;34.92;99412.09;4230752;28;20096;-51
2023/12/13 05:21:01;;;;;;;4.70;1.35;;;;;;;23.93;34.79;99407.41;4230865;27;20047;-52
2023/12/13 05:23:03;;;;;;;;;;;;;;;23.94;35.07;99403.72;4231037;28;20153;-52
2023/12/13 05:25:05;;;;;;;6.30;1.60;;;;;;;23.93;34.80;99405.56;4230670;28;19971;-50
2023/12/13 05:27:07;;;;;;;5.35;1.38;;;;;;;23.95;34.69;99405.41;4230604;28;20043;-52
2023/12/13 05:29:08;;;;;;;5.65;1.27;;;;;;;23.97;35.02;99397.16;4230751;28;20047;-52
2023/12/13 05:31:20;;;;;;;5.30;1.30;;;;;;;23.99;34.82;99392.47;4230734;28;20117;-49
2023/12/13 05:33:22;;;;;;;;;;;;;;;23.97;34.63;99395.31;4231047;28;20043;-53
2023/12/13 05:35:24;;;;;;;4.95;1.45;;;;;;;23.96;35.07;99396.31;4230595;28;19951;-51
2023/12/13 05:37:25;;;;;;;5.38;1.50;;;;;;;23.97;34.72;99395.31;4230318;28;20058;-51
2023/12/13 05:39:27;;;;;;;6.05;1.40;;;;;;;23.96;34.95;99399.00;4230551;28;20043;-51
2023/12/13 05:41:29;;;;;;;5.05;1.23;;;;;;;23.97;35.02;99395.31;4230554;28;20044;-51
2023/12/13 05:43:30;;;;;;;5.13;1.40;;;;;;;23.98;35.07;99398.84;4230139;28;20220;-51
2023/12/13 05:45:32;;;;;;;;;;;;;;;23.97;34.63;99406.03;4230886;28;20066;-53
2023/12/13 05:47:33;;;;;;;5.65;1.50;;;;;;;23.95;34.91;99399.19;4230123;28;19920;-52
2023/12/13 05:49:35;;;;;;;;;;;;;;;23.96;34.83;99387.44;4230834;28;20122;-51
2023/12/13 05:51:37;;;;;;;4.95;1.60;;;;;;;23.93;35.02;99386.75;4230461;28;19920;-52
2023/12/13 05:53:39;;;;;;;4.72;1.35;;;;;;;23.95;34.73;99385.75;4230315;28;20093;-51
2023/12/13 05:55:42;;;;;;;4.57;1.30;;;;;;;23.98;35.11;99388.91;4230370;28;20520;-50
2023/12/13 05:57:44;;;;;;;4.43;1.30;;;;;;;23.99;34.77;99389.78;4230027;28;20039;-52
2023/12/13 05:59:45;;;;;;;4.95;1.48;;;;;;;23.98;34.76;99380.03;4230008;28;20054;-51
2023/12/13 06:01:47;;;;;;;5.57;1.33;;;;;;;23.96;34.75;99379.38;4229946;28;20046;-51
2023/12/13 06:03:48;;;;;;;6.20;1.52;;;;;;;23.95;34.69;99380.38;4230263;28;20039;-53
2023/12/13 06:05:50;;;;;;;6.28;1.40;;;;;;;23.95;34.98;99383.06;4230205;28;20039;-53
2023/12/13 06:07:52;;;;;;;5.50;1.40;;;;;;;23.96;35.21;99382.06;4230166;28;20367;-52
2023/12/13 06:09:54;;;;;;;;;;;;;;;23.96;35.01;99388.25;4230636;28;20054;-51
2023/12/13 06:11:56;;;;;;;3.55;1.20;;;;;;;23.95;34.90;99385.75;4230304;28;19926;-52
2023/12/13 06:13:57;;;;;;;;;;;;;;;23.96;34.95;99385.56;4230483;28;20044;-51
2023/12/13 06:15:59;;;;;;;5.05;1.23;;;;;;;23.96;35.08;99382.06;4229995;28;19920;-52
2023/12/13 06:18:01;;;;;;;5.18;1.20;;;;;;;23.98;34.95;99380.03;4230048;28;20051;-51
2023/12/13 06:20:03;;;;;;;4.57;1.40;;;;;;;23.98;35.14;99380.03;4229844;28;20047;-50
2023/12/13 06:22:07;;;;;;;4.93;1.35;;;;;;;23.98;34.67;99375.50;4228819;28;20130;-50
2023/12/13 06:24:08;;;;;;;5.18;1.42;;;;;;;23.99;34.92;99384.41;4229977;28;20047;-52
2023/12/13 06:26:10;;;;;;;5.38;1.33;;;;;;;23.98;34.77;99390.78;4230002;28;20452;-51
2023/12/13 06:28:11;;;;;;;5.28;1.20;;;;;;;23.96;34.78;99393.63;4230080;28;20039;-51
2023/12/13 06:30:13;;;;;;;5.50;1.17;;;;;;;23.97;35.11;99387.25;4229726;28;20048;-52
2023/12/13 06:32:15;;;;;;;4.60;1.15;;;;;;;23.98;34.35;99398.84;4229993;28;20509;-51
2023/12/13 06:34:17;;;;;;;4.20;1.13;;;;;;;23.96;34.83;99387.44;4229802;28;20120;-51
2023/12/13 06:36:18;;;;;;;;;;;;;;;23.98;34.54;99390.78;4230426;28;20104;-52
2023/12/13 06:38:22;;;;;;;3.50;1.20;;;;;;;23.96;34.74;99393.63;4229743;28;19927;-50
2023/12/13 06:40:24;;;;;;;4.13;1.20;;;;;;;23.98;34.70;99391.59;4229900;28;20043;-53
2023/12/13 06:42:28;;;;;;;4.97;1.15;;;;;;;24.00;34.69;99396.78;4228617;28;20044;-53
2023/12/13 06:44:30;;;;;;;5.20;1.30;;;;;;;24.01;34.70;99390.41;4229574;28;20047;-50
2023/12/13 06:46:32;;;;;;;4.18;1.23;;;;;;;24.00;34.79;99394.97;4229819;28;20051;-51
2023/12/13 06:48:33;;;;;;;;;;;;;;;23.99;34.58;99403.22;4230490;28;20058;-51
2023/12/13 06:50:35;;;;;;;4.03;1.30;;;;;;;23.97;34.89;99402.53;4229737;28;19927;-49
2023/12/13 06:52:38;;;;;;;4.60;1.15;;;;;;;23.97;34.51;99398.00;4229719;28;20123;-52
2023/12/13 06:54:39;;;;;;;3.97;1.20;;;;;;;23.98;34.65;99404.22;4229985;28;20039;-51
2023/12/13 06:56:41;;;;;;;3.95;1.17;;;;;;;23.99;34.83;99405.88;4233039;28;20044;-50
2023/12/13 06:58:42;;;;;;;4.35;1.30;;;;;;;23.99;34.61;99403.22;4232710;28;20516;-53
2023/12/13 07:00:44;;;;;;;;;;;;;;;23.99;34.35;99406.72;4233695;28;20073;-50
2023/12/13 07:02:46;;;;;;;4.97;1.40;;;;;;;23.98;34.75;99399.66;4233131;28;19970;-52
2023/12/13 07:04:47;;;;;;;;;;;;;;;24.00;34.70;99402.16;4233449;28;20079;-52
2023/12/13 07:06:49;;;;;;;5.15;1.52;;;;;;;23.99;34.80;99395.16;4232913;27;19923;-53
2023/12/13 07:08:50;;;;;;;4.93;1.20;;;;;;;23.99;34.71;99400.53;4232879;28;20036;-54
2023/12/13 07:10:52;;;;;;;4.07;1.10;;;;;;;24.00;34.65;99402.16;4232888;28;20074;-53
2023/12/13 07:12:54;;;;;;;4.80;1.25;;;;;;;24.00;34.39;99400.34;4232438;28;20042;-51
2023/12/13 07:14:56;;;;;;;3.95;1.20;;;;;;;24.00;34.51;99408.41;4232725;28;20059;-50
2023/12/13 07:16:58;;;;;;;5.50;1.40;;;;;;;24.00;34.44;99407.53;4232900;28;20127;-52
2023/12/13 07:19:00;;;;;;;4.80;1.20;;;;;;;24.00;34.63;99412.91;4232963;28;20129;-54
2023/12/13 07:21:01;;;;;;;;;;;;;;;23.97;34.23;99414.09;4233258;28;20162;-52
2023/12/13 07:23:04;;;;;;;5.70;1.25;;;;;;;23.97;34.62;99408.72;4232484;28;19976;-54
2023/12/13 07:25:06;;;;;;;5.10;1.20;;;;;;;23.99;34.38;99414.78;4232735;28;20044;-49
2023/12/13 07:27:08;;;;;;;4.75;1.17;;;;;;;24.01;34.58;99401.16;4232625;28;20047;-53
2023/12/13 07:29:09;;;;;;;4.10;1.15;;;;;;;24.02;34.52;99411.75;4232496;28;20421;-51
2023/12/13 07:31:11;;;;;;;5.90;1.60;;;;;;;24.03;34.38;99410.72;4232414;28;20047;-48
2023/12/13 07:33:13;;;;;;;5.90;1.52;;;;;;;24.04;34.42;99415.09;4232719;28;20137;-47
2023/12/13 07:35:15;;;;;;;4.18;1.00;;;;;;;24.04;34.50;99415.09;4232448;28;20486;-51
2023/12/13 07:37:18;;;;;;;4.68;1.40;;;;;;;24.04;34.55;99414.25;4232316;28;20046;-52
2023/12/13 07:39:19;;;;;;;3.97;1.17;;;;;;;24.02;34.34;99408.22;4232413;28;20127;-52
2023/12/13 07:41:21;;;;;;;4.70;1.10;;;;;;;24.01;34.66;99420.81;4232467;28;20078;-50
2023/12/13 07:43:22;;;;;;;;;;;;;;;24.01;34.40;99423.50;4232388;28;20433;-51
2023/12/13 07:45:24;;;;;;;5.07;1.33;;;;;;;24.00;34.43;99424.50;4232284;28;19927;-53
2023/12/13 07:47:26;;;;;;;4.72;1.40;;;;;;;24.04;34.36;99422.31;4232343;28;20079;-53
2023/12/13 07:49:28;;;;;;;;;;;;;;;24.02;34.27;99427.88;4232644;28;20043;-52
2023/12/13 07:51:31;;;;;;;4.57;1.40;;;;;;;24.03;34.27;99432.19;4232267;28;19923;-53
2023/12/13 07:53:33;;;;;;;4.18;1.27;;;;;;;24.03;34.46;99429.50;4232345;28;20047;-53
2023/12/13 07:55:34;;;;;;;3.50;1.25;;;;;;;24.04;34.36;99428.50;4230979;28;20043;-51
2023/12/13 07:57:36;;;;;;;5.10;1.17;;;;;;;24.04;34.54;99435.75;4231821;28;20044;-52
2023/12/13 07:59:38;;;;;;;4.70;1.52;;;;;;;24.04;34.18;99436.56;4232223;27;20513;-51
2023/12/13 08:01:39;;;;;;;;;;;;;;;24.03;34.48;99440.25;4232412;28;20070;-52
2023/12/13 08:03:41;;;;;;;5.50;1.25;;;;;;;24.02;34.27;99443.13;4232079;28;20026;-52
2023/12/13 08:05:42;;;;;;;4.78;1.45;;;;;;;24.02;34.54;99443.97;4231656;28;20247;-50
2023/12/13 08:07:44;;;;;;;3.83;1.38;;;;;;;24.03;34.34;99444.81;4231951;28;20512;-50
2023/12/13 08:09:46;;;;;;;4.75;1.50;;;;;;;24.04;34.47;99450.00;4231721;28;20128;-51
2023/12/13 08:11:47;;;;;;;6.80;1.40;;;;;;;24.05;34.04;99446.31;4231635;28;20494;-51
2023/12/13 08:13:49;;;;;;;6.55;1.15;;;;;;;24.08;34.30;99450.47;4231765;28;20136;-51
2023/12/13 08:15:51;;;;;;;4.60;1.30;;;;;;;24.09;34.04;99460.22;4231648;28;20039;-53
2023/12/13 08:17:52;;;;;;;5.07;1.45;;;;;;;24.09;34.36;99458.34;4231834;28;20647;-53
2023/12/13 08:19:54;;;;;;;4.22;1.10;;;;;;;24.09;34.33;99462.91;4230332;28;20085;-52
2023/12/13 08:21:56;;;;;;;4.35;1.17;;;;;;;24.09;34.24;99469.09;4231680;28;20069;-49
2023/12/13 08:23:58;;;;;;;3.45;1.00;;;;;;;24.09;34.10;99469.09;4231300;28;20105;-52
2023/12/13 08:26:00;;;;;;;5.32;1.40;;;;;;;24.08;33.87;99466.59;4231347;28;20064;-50
2023/12/13 08:28:02;;;;;;;4.68;0.95;;;;;;;24.07;34.24;99463.09;4231554;28;20059;-51
2023/12/13 08:30:04;;;;;;;4.32;1.10;;;;;;;24.08;34.05;99467.47;4231411;28;20054;-52
2023/12/13 08:32:06;;;;;;;3.88;1.30;;;;;;;24.07;34.30;99468.47;4231486;28;20048;-52
2023/12/13 08:34:08;;;;;;;4.00;1.13;;;;;;;24.08;34.47;99478.19;4231280;28;20054;-49
2023/12/13 08:36:13;;;;;;;5.57;1.17;;;;;;;24.09;33.97;99471.78;4231269;28;20441;-49
2023/12/13 08:38:20;;;;;;;6.80;1.38;;;;;;;24.09;34.24;99474.47;4231176;28;20561;-52
2023/12/13 08:40:27;;;;;;;3.72;1.20;;;;;;;24.11;34.36;99478.84;4231011;28;20048;-52
2023/12/13 08:42:33;;;;;;;4.10;1.20;;;;;;;24.11;34.15;99476.16;4230081;28;20071;-53
2023/12/13 08:44:46;;;;;;;3.70;1.15;;;;;;;24.11;33.91;99478.84;4231066;28;20071;-52
2023/12/13 08:46:47;;;;;;;3.70;1.05;;;;;;;24.10;34.28;99483.38;4231293;28;20409;-52
2023/12/13 08:48:49;;;;;;;4.38;1.30;;;;;;;24.10;34.04;99486.06;4231144;28;20425;-52
2023/12/13 08:50:51;;;;;;;;;;;;;;;24.07;33.94;99483.72;4231644;28;20100;-53
2023/12/13 08:52:54;;;;;;;4.75;1.10;;;;;;;24.04;34.23;99481.41;4231211;28;19920;-53
2023/12/13 08:54:56;;;;;;;3.67;1.30;;;;;;;24.05;34.11;99477.72;4230900;28;20475;-52
2023/12/13 08:56:57;;;;;;;4.22;1.10;;;;;;;24.07;34.18;99484.56;4231024;28;20054;-51
2023/12/13 08:58:59;;;;;;;4.63;1.20;;;;;;;24.07;34.10;99481.88;4229666;27;20131;-49
2023/12/13 09:01:01;;;;;;;4.30;1.00;;;;;;;24.09;33.98;99481.72;4225835;28;20050;-50
2023/12/13 09:03:03;;;;;;;;;;;;;;;24.09;33.90;99482.53;4230528;28;20055;-51
2023/12/13 09:05:05;;;;;;;3.50;1.10;;;;;;;24.07;34.32;99481.88;4226482;27;20021;-50
2023/12/13 09:07:07;;;;;;;3.92;1.20;;;;;;;24.11;33.81;99493.13;4228033;28;20075;-53
2023/12/13 09:09:11;;;;;;;5.10;1.50;;;;;;;24.07;33.77;99489.94;4230607;27;20043;-52
2023/12/13 09:11:12;;;;;;;3.50;1.13;;;;;;;24.07;33.76;99487.25;4230787;28;20043;-54
2023/12/13 09:13:14;;;;;;;4.55;1.10;;;;;;;24.07;33.76;99498.00;4230702;28;20044;-53
2023/12/13 09:15:17;;;;;;;5.25;1.27;;;;;;;24.05;33.53;99491.97;4230805;28;20090;-53
2023/12/13 09:17:19;;;;;;;5.10;1.27;;;;;;;24.07;33.52;99505.22;4230207;28;20047;-54
2023/12/13 09:19:21;;;;;;;4.35;1.02;;;;;;;24.06;33.41;99508.94;4229467;28;20058;-53
2023/12/13 09:21:27;;;;;;;5.10;1.10;;;;;;;24.06;33.69;99507.06;4233558;27;20057;-52
2023/12/13 09:23:29;;;;;;;4.07;1.08;;;;;;;24.09;33.25;99501.34;4238415;27;20052;-47
2023/12/13 09:25:31;;;;;;;6.45;1.40;;;;;;;24.03;33.63;99510.09;4238713;27;20046;-54
2023/12/13 09:27:32;;;;;;;5.38;1.23;;;;;;;24.13;33.41;99501.84;4230507;28;20477;-49
2023/12/13 09:29:34;;;;;;;6.07;1.35;;;;;;;24.18;33.17;99501.31;4233324;27;20043;-50
2023/12/13 09:31:36;;;;;;;8.63;1.67;;;;;;;24.19;33.44;99500.31;4228765;28;20426;-47
2023/12/13 09:33:37;;;;;;;20.42;2.10;;;;;;;24.16;33.15;99501.50;4230193;28;20044;-48
2023/12/13 09:35:39;;;;;;;11.90;1.90;;;;;;;24.11;32.85;99503.00;4230523;28;20043;-48
2023/12/13 09:37:41;;;;;;;;;;;;;;;24.07;32.72;99497.16;4239295;27;20051;-48
2023/12/13 09:39:45;;;;;;;;;;;;;;;24.02;33.09;99504.91;4229907;28;19934;-47
2023/12/13 09:42:03;;;;;;;13.13;2.08;;;;;;;24.00;33.05;99505.06;4230365;28;20366;-50
2023/12/13 09:44:04;;;;;;;9.07;1.63;;;;;;;23.98;33.19;99504.41;4230086;28;20100;-50